createdAt,value
2018-11-01T00:02:30.530Z,101354.99
2018-11-01T00:07:13.516Z,101345.55
2018-11-01T00:11:57.668Z,101348.44
2018-11-01T00:16:41.267Z,101335.44
2018-11-01T00:21:25.377Z,101324.72
2018-11-01T00:26:08.894Z,101325.06
2018-11-01T00:30:51.884Z,101321.67
2018-11-01T00:35:34.802Z,101325.26
2018-11-01T00:40:17.911Z,101327.07
2018-11-01T00:45:00.850Z,101330.27
2018-11-01T00:49:44.002Z,101327.42
2018-11-01T00:54:26.947Z,101332.64
2018-11-01T00:59:13.307Z,101334.86
2018-11-01T01:03:56.194Z,101336.34
2018-11-01T01:08:39.137Z,101337.52
2018-11-01T01:13:23.211Z,101336.30
2018-11-01T01:18:07.431Z,101349.90
2018-11-01T01:22:52.530Z,101365.63
2018-11-01T01:27:35.512Z,101386.35
2018-11-01T01:32:23.420Z,101398.37
2018-11-01T01:37:06.763Z,101401.02
2018-11-01T01:41:50.848Z,101404.21
2018-11-01T01:46:34.339Z,101405.66
2018-11-01T01:51:18.313Z,101405.41
2018-11-01T01:56:01.302Z,101402.82
2018-11-01T02:00:44.263Z,101417.64
2018-11-01T02:05:27.171Z,101441.36
2018-11-01T02:10:14.073Z,101444.22
2018-11-01T02:14:56.976Z,101440.30
2018-11-01T02:19:39.931Z,101445.03
2018-11-01T02:24:22.839Z,101431.07
2018-11-01T02:29:05.939Z,101412.54
2018-11-01T02:33:48.829Z,101407.36
2018-11-01T02:38:31.778Z,101402.56
2018-11-01T02:43:14.653Z,101424.42
2018-11-01T02:47:57.546Z,101427.75
2018-11-01T02:52:41.704Z,101427.55
2018-11-01T02:57:24.655Z,101418.72
2018-11-01T03:02:08.696Z,101437.31
2018-11-01T03:06:51.633Z,101455.28
2018-11-01T03:11:35.732Z,101465.68
2018-11-01T03:16:18.650Z,101465.69
2018-11-01T03:21:02.159Z,101471.98
2018-11-01T03:25:45.091Z,101469.16
2018-11-01T03:30:36.707Z,101475.59
2018-11-01T03:35:20.761Z,101479.72
2018-11-01T03:40:09.310Z,101489.55
2018-11-01T03:44:52.247Z,101485.64
2018-11-01T03:49:35.179Z,101481.30
2018-11-01T03:54:18.159Z,101488.89
2018-11-01T03:59:01.199Z,101479.66
2018-11-01T04:03:44.139Z,101478.71
2018-11-01T04:08:27.074Z,101477.31
2018-11-01T04:13:10.006Z,101475.39
2018-11-01T04:17:52.951Z,101483.30
2018-11-01T04:22:36.936Z,101474.47
2018-11-01T04:27:20.373Z,101469.16
2018-11-01T04:32:05.892Z,101463.36
2018-11-01T04:36:48.787Z,101456.53
2018-11-01T04:41:32.789Z,101462.59
2018-11-01T04:46:15.754Z,101471.82
2018-11-01T04:51:02.349Z,101471.99
2018-11-01T04:55:45.220Z,101464.37
2018-11-01T05:00:28.148Z,101464.43
2018-11-01T05:05:11.207Z,101461.22
2018-11-01T05:09:54.183Z,101449.55
2018-11-01T05:14:37.074Z,101446.22
2018-11-01T05:19:21.191Z,101452.27
2018-11-01T05:24:04.270Z,101443.73
2018-11-01T05:28:49.282Z,101453.41
2018-11-01T05:33:32.184Z,101467.13
2018-11-01T05:38:16.371Z,101486.44
2018-11-01T05:42:59.288Z,101503.63
2018-11-01T05:47:42.211Z,101523.02
2018-11-01T05:52:26.261Z,101532.65
2018-11-01T05:57:09.854Z,101524.23
2018-11-01T06:01:58.919Z,101528.58
2018-11-01T06:06:47.012Z,101536.95
2018-11-01T06:11:31.155Z,101549.16
2018-11-01T06:16:14.088Z,101547.29
2018-11-01T06:20:57.270Z,101527.64
2018-11-01T06:25:40.373Z,101518.94
2018-11-01T06:30:24.462Z,101533.71
2018-11-01T06:35:15.766Z,101546.45
2018-11-01T06:39:58.866Z,101543.56
2018-11-01T06:44:41.780Z,101553.73
2018-11-01T06:49:24.689Z,101536.35
2018-11-01T06:54:07.569Z,101537.63
2018-11-01T06:58:50.719Z,101545.75
2018-11-01T07:03:33.564Z,101545.44
2018-11-01T07:08:16.758Z,101554.69
2018-11-01T07:12:59.618Z,101558.10
2018-11-01T07:17:42.723Z,101554.63
2018-11-01T07:22:27.614Z,101564.27
2018-11-01T07:27:10.515Z,101568.38
2018-11-01T07:31:54.616Z,101574.72
2018-11-01T07:36:37.588Z,101567.11
2018-11-01T07:41:22.564Z,101571.53
2018-11-01T07:46:05.529Z,101566.89
2018-11-01T07:50:48.531Z,101564.76
2018-11-01T07:55:31.452Z,101567.38
2018-11-01T08:00:15.990Z,101569.80
2018-11-01T08:04:58.895Z,101545.48
2018-11-01T08:09:41.878Z,101542.63
2018-11-01T08:14:24.802Z,101539.66
2018-11-01T08:19:08.918Z,101550.62
2018-11-01T08:23:51.795Z,101554.01
2018-11-01T08:28:35.769Z,101551.48
2018-11-01T08:33:18.694Z,101549.09
2018-11-01T08:38:02.746Z,101563.01
2018-11-01T08:42:45.629Z,101558.13
2018-11-01T08:47:28.521Z,101550.28
2018-11-01T08:52:12.398Z,101541.92
2018-11-01T08:56:55.307Z,101526.76
2018-11-01T09:01:39.338Z,101514.20
2018-11-01T09:06:22.199Z,101516.36
2018-11-01T09:11:05.363Z,101527.48
2018-11-01T09:15:48.269Z,101530.20
2018-11-01T09:20:31.255Z,101535.06
2018-11-01T09:25:14.166Z,101542.86
2018-11-01T09:29:59.066Z,101536.78
2018-11-01T09:36:11.331Z,101536.22
2018-11-01T09:40:54.429Z,101528.69
2018-11-01T09:45:37.339Z,101527.66
2018-11-01T09:50:20.435Z,101527.45
2018-11-01T09:55:03.447Z,101509.52
2018-11-01T09:59:47.486Z,101503.22
2018-11-01T10:04:30.436Z,101502.09
2018-11-01T10:09:13.510Z,101500.34
2018-11-01T10:13:56.405Z,101498.84
2018-11-01T10:18:40.492Z,101496.17
2018-11-01T10:23:23.394Z,101493.69
2018-11-01T10:28:06.733Z,101489.63
2018-11-01T10:32:49.643Z,101481.95
2018-11-01T10:37:33.515Z,101481.02
2018-11-01T10:42:16.409Z,101481.83
2018-11-01T10:46:59.324Z,101478.17
2018-11-01T10:51:44.367Z,101478.00
2018-11-01T10:56:27.234Z,101481.52
2018-11-01T11:01:19.353Z,101491.55
2018-11-01T11:06:02.239Z,101487.18
2018-11-01T11:10:45.346Z,101484.81
2018-11-01T11:15:28.234Z,101493.89
2018-11-01T11:20:12.183Z,101484.41
2018-11-01T11:24:54.954Z,101487.87
2018-11-01T11:29:39.913Z,101484.02
2018-11-01T11:34:22.832Z,101486.84
2018-11-01T11:39:11.561Z,101487.45
2018-11-01T11:43:54.829Z,101479.84
2018-11-01T11:48:37.884Z,101477.25
2018-11-01T11:53:20.789Z,101468.06
2018-11-01T11:58:07.191Z,101466.66
2018-11-01T12:02:50.094Z,101474.53
2018-11-01T12:07:37.229Z,101467.39
2018-11-01T12:12:20.090Z,101457.49
2018-11-01T12:17:03.583Z,101468.25
2018-11-01T12:21:46.478Z,101467.58
2018-11-01T12:26:29.400Z,101470.69
2018-11-01T12:31:17.887Z,101470.08
2018-11-01T12:36:00.786Z,101462.86
2018-11-01T12:40:49.252Z,101460.35
2018-11-01T12:45:32.110Z,101461.53
2018-11-01T12:50:15.096Z,101470.41
2018-11-01T12:54:57.885Z,101471.02
2018-11-01T12:59:40.834Z,101471.19
2018-11-01T13:04:23.723Z,101487.27
2018-11-01T13:09:10.843Z,101478.84
2018-11-01T13:13:53.963Z,101477.37
2018-11-01T13:18:38.272Z,101477.06
2018-11-01T13:23:21.563Z,101483.90
2018-11-01T13:28:06.926Z,101486.19
2018-11-01T13:32:49.811Z,101473.86
2018-11-01T13:37:33.852Z,101489.55
2018-11-01T13:42:16.744Z,101492.31
2018-11-01T13:47:00.751Z,101483.38
2018-11-01T13:51:43.660Z,101488.48
2018-11-01T13:56:26.691Z,101498.37
2018-11-01T14:01:10.583Z,101515.25
2018-11-01T14:05:53.893Z,101510.15
2018-11-01T14:10:36.883Z,101514.45
2018-11-01T14:15:21.011Z,101508.83
2018-11-01T14:20:05.867Z,101512.97
2018-11-01T14:24:48.799Z,101506.45
2018-11-01T14:29:35.113Z,101511.22
2018-11-01T14:34:18.012Z,101502.28
2018-11-01T14:39:04.302Z,101503.22
2018-11-01T14:43:47.140Z,101511.88
2018-11-01T14:48:30.174Z,101515.20
2018-11-01T14:53:13.701Z,101528.07
2018-11-01T14:57:58.261Z,101535.55
2018-11-01T15:04:09.270Z,101540.44
2018-11-01T15:08:53.347Z,101544.19
2018-11-01T15:13:36.222Z,101549.48
2018-11-01T15:18:19.412Z,101562.45
2018-11-01T15:23:02.334Z,101562.70
2018-11-01T15:27:47.393Z,101579.67
2018-11-01T15:32:30.300Z,101587.67
2018-11-01T15:37:16.554Z,101584.06
2018-11-01T15:41:59.478Z,101569.31
2018-11-01T15:46:43.544Z,101579.35
2018-11-01T15:51:26.447Z,101587.69
2018-11-01T15:56:09.338Z,101595.21
2018-11-01T16:00:55.451Z,101594.48
2018-11-01T16:05:38.369Z,101585.80
2018-11-01T16:10:21.307Z,101586.95
2018-11-01T16:15:05.624Z,101585.77
2018-11-01T16:19:49.762Z,101584.08
2018-11-01T16:24:32.522Z,101582.16
2018-11-01T16:29:16.424Z,101584.92
2018-11-01T16:33:59.327Z,101594.98
2018-11-01T16:38:45.270Z,101602.70
2018-11-01T16:43:28.257Z,101597.17
2018-11-01T16:48:11.438Z,101598.98
2018-11-01T16:52:54.734Z,101602.25
2018-11-01T16:57:38.670Z,101608.50
2018-11-01T17:02:21.528Z,101615.27
2018-11-01T17:07:07.082Z,101613.48
2018-11-01T17:11:50.014Z,101610.95
2018-11-01T17:16:35.669Z,101616.14
2018-11-01T17:21:18.604Z,101617.42
2018-11-01T17:26:02.044Z,101614.48
2018-11-01T17:30:46.998Z,101612.34
2018-11-01T17:35:29.885Z,101619.04
2018-11-01T17:40:14.898Z,101611.84
2018-11-01T17:44:57.749Z,101614.42
2018-11-01T17:49:40.802Z,101608.91
2018-11-01T17:54:23.752Z,101609.19
2018-11-01T17:59:10.182Z,101618.12
2018-11-01T18:03:53.084Z,101622.30
2018-11-01T18:08:36.280Z,101620.23
2018-11-01T18:13:19.148Z,101618.99
2018-11-01T18:18:02.208Z,101615.00
2018-11-01T18:22:45.245Z,101605.81
2018-11-01T18:27:29.274Z,101608.62
2018-11-01T18:33:41.571Z,101608.83
2018-11-01T18:38:27.947Z,101607.49
2018-11-01T18:43:10.839Z,101616.37
2018-11-01T18:47:54.120Z,101625.59
2018-11-01T18:52:37.047Z,101629.42
2018-11-01T18:57:22.016Z,101629.31
2018-11-01T19:02:05.005Z,101623.77
2018-11-01T19:06:51.592Z,101626.56
2018-11-01T19:11:34.525Z,101629.30
2018-11-01T19:16:20.982Z,101631.59
2018-11-01T19:21:03.928Z,101623.70
2018-11-01T19:25:46.884Z,101632.23
2018-11-01T19:30:29.911Z,101633.23
2018-11-01T19:35:13.707Z,101634.86
2018-11-01T19:39:57.155Z,101638.53
2018-11-01T19:44:40.235Z,101634.92
2018-11-01T19:49:23.481Z,101637.17
2018-11-01T19:54:06.434Z,101644.81
2018-11-01T19:58:49.522Z,101647.58
2018-11-01T20:03:33.305Z,101653.16
2018-11-01T20:08:16.385Z,101643.27
2018-11-01T20:12:59.256Z,101658.38
2018-11-01T20:17:42.344Z,101644.63
2018-11-01T20:22:25.273Z,101648.62
2018-11-01T20:27:09.766Z,101636.59
2018-11-01T20:31:52.769Z,101641.64
2018-11-01T20:36:37.710Z,101629.91
2018-11-01T20:41:20.703Z,101628.09
2018-11-01T20:46:03.672Z,101637.27
2018-11-01T20:50:46.622Z,101636.58
2018-11-01T20:55:29.491Z,101638.23
2018-11-01T21:00:14.805Z,101643.23
2018-11-01T21:04:57.770Z,101634.70
2018-11-01T21:09:40.719Z,101631.95
2018-11-01T21:14:23.606Z,101624.17
2018-11-01T21:19:08.806Z,101626.95
2018-11-01T21:23:51.701Z,101617.52
2018-11-01T21:28:38.461Z,101615.98
2018-11-01T21:33:21.370Z,101617.94
2018-11-01T21:38:08.218Z,101615.86
2018-11-01T21:42:51.119Z,101623.09
2018-11-01T21:47:34.269Z,101630.45
2018-11-01T21:52:17.120Z,101620.35
2018-11-01T21:57:01.076Z,101626.08
2018-11-01T22:01:43.979Z,101608.16
2018-11-01T22:06:28.072Z,101606.11
2018-11-01T22:11:11.066Z,101607.80
2018-11-01T22:15:54.103Z,101611.44
2018-11-01T22:20:37.042Z,101604.66
2018-11-01T22:25:19.988Z,101600.67
2018-11-01T22:30:05.489Z,101599.50
2018-11-01T22:34:48.414Z,101589.36
2018-11-01T22:39:32.356Z,101577.88
2018-11-01T22:44:15.193Z,101578.92
2018-11-01T22:48:59.089Z,101565.59
2018-11-01T22:53:42.080Z,101562.30
2018-11-01T22:58:27.189Z,101560.78
2018-11-01T23:03:10.090Z,101549.70
2018-11-01T23:07:53.986Z,101550.80
2018-11-01T23:12:37.294Z,101547.59
2018-11-01T23:17:23.885Z,101550.05
2018-11-01T23:22:07.092Z,101555.35
2018-11-01T23:26:53.822Z,101568.41
2018-11-01T23:31:37.140Z,101562.12
2018-11-01T23:36:19.959Z,101570.27
2018-11-01T23:41:08.401Z,101560.90
2018-11-01T23:46:00.811Z,101547.06
2018-11-01T23:50:51.438Z,101545.03
2018-11-01T23:55:36.349Z,101554.95
